createdAt,value
2018-11-04T00:00:30.505Z,6.44
2018-11-04T00:02:59.064Z,6.37
2018-11-04T00:05:27.688Z,6.36
2018-11-04T00:07:56.358Z,6.36
2018-11-04T00:10:24.884Z,6.37
2018-11-04T00:12:53.477Z,6.26
2018-11-04T00:15:22.007Z,6.35
2018-11-04T00:17:51.464Z,6.31
2018-11-04T00:20:20.095Z,6.37
2018-11-04T00:22:48.753Z,6.40
2018-11-04T00:25:17.293Z,6.35
2018-11-04T00:27:46.768Z,6.37
2018-11-04T00:30:16.560Z,6.29
2018-11-04T00:32:45.862Z,6.41
2018-11-04T00:35:15.240Z,6.51
2018-11-04T00:37:45.681Z,6.51
2018-11-04T00:40:14.618Z,6.52
2018-11-04T00:42:43.518Z,6.55
2018-11-04T00:45:12.106Z,6.62
2018-11-04T00:47:40.995Z,6.57
2018-11-04T00:50:12.241Z,6.57
2018-11-04T00:52:40.955Z,6.54
2018-11-04T00:55:10.563Z,6.55
2018-11-04T00:57:39.089Z,6.63
2018-11-04T01:00:15.003Z,6.71
2018-11-04T01:02:45.438Z,6.69
2018-11-04T01:05:16.228Z,6.66
2018-11-04T01:07:46.820Z,6.78
2018-11-04T01:10:17.373Z,6.82
2018-11-04T01:12:46.670Z,6.81
2018-11-04T01:15:16.780Z,6.88
2018-11-04T01:17:47.508Z,6.95
2018-11-04T01:20:17.728Z,6.98
2018-11-04T01:22:49.691Z,6.90
2018-11-04T01:25:18.315Z,6.86
2018-11-04T01:27:48.064Z,6.89
2018-11-04T01:30:17.913Z,6.93
2018-11-04T01:32:47.475Z,6.97
2018-11-04T01:35:16.340Z,7.01
2018-11-04T01:37:46.803Z,7.08
2018-11-04T01:40:16.167Z,7.31
2018-11-04T01:42:46.353Z,7.29
2018-11-04T01:45:15.580Z,7.27
2018-11-04T01:47:45.646Z,7.30
2018-11-04T01:50:15.651Z,7.36
2018-11-04T01:52:45.995Z,7.35
2018-11-04T01:55:15.234Z,7.38
2018-11-04T01:57:44.594Z,7.45
2018-11-04T02:00:17.622Z,7.53
2018-11-04T02:02:46.993Z,7.62
2018-11-04T02:05:17.965Z,7.68
2018-11-04T02:07:46.497Z,7.75
2018-11-04T02:10:15.956Z,7.76
2018-11-04T02:12:46.557Z,7.71
2018-11-04T02:15:16.699Z,7.82
2018-11-04T02:17:46.317Z,7.80
2018-11-04T02:20:15.666Z,7.76
2018-11-04T02:22:45.611Z,7.83
2018-11-04T02:25:15.243Z,7.83
2018-11-04T02:27:45.939Z,7.84
2018-11-04T02:30:17.285Z,7.88
2018-11-04T02:32:47.468Z,7.96
2018-11-04T02:35:17.181Z,8.04
2018-11-04T02:37:46.546Z,8.19
2018-11-04T02:40:16.976Z,8.23
2018-11-04T02:42:45.747Z,8.15
2018-11-04T02:45:16.319Z,8.14
2018-11-04T02:47:46.969Z,8.24
2018-11-04T02:50:17.617Z,8.21
2018-11-04T02:52:46.353Z,8.22
2018-11-04T02:55:16.860Z,8.21
2018-11-04T02:57:46.261Z,8.10
2018-11-04T03:00:16.817Z,8.24
2018-11-04T03:02:46.183Z,8.14
2018-11-04T03:05:15.436Z,8.10
2018-11-04T03:07:44.494Z,8.14
2018-11-04T03:10:15.497Z,8.33
2018-11-04T03:12:45.393Z,8.26
2018-11-04T03:15:15.142Z,8.24
2018-11-04T03:17:44.960Z,8.13
2018-11-04T03:20:14.316Z,8.13
2018-11-04T03:22:45.040Z,8.20
2018-11-04T03:25:14.608Z,8.23
2018-11-04T03:27:44.687Z,8.24
2018-11-04T03:30:14.816Z,8.34
2018-11-04T03:32:44.383Z,8.39
2018-11-04T03:35:14.524Z,8.33
2018-11-04T03:37:44.818Z,8.31
2018-11-04T03:40:14.366Z,8.37
2018-11-04T03:42:44.936Z,8.41
2018-11-04T03:45:14.564Z,8.44
2018-11-04T03:47:44.677Z,8.40
2018-11-04T03:50:14.790Z,8.47
2018-11-04T03:52:45.551Z,8.57
2018-11-04T03:55:14.421Z,8.54
2018-11-04T03:57:44.907Z,8.75
2018-11-04T04:00:13.956Z,8.62
2018-11-04T04:02:44.333Z,8.76
2018-11-04T04:05:14.283Z,8.89
2018-11-04T04:07:44.563Z,8.92
2018-11-04T04:10:14.607Z,8.97
2018-11-04T04:12:43.208Z,8.94
2018-11-04T04:15:12.829Z,8.94
2018-11-04T04:17:42.530Z,8.93
2018-11-04T04:20:11.973Z,8.90
2018-11-04T04:22:41.614Z,8.98
2018-11-04T04:25:11.169Z,9.03
2018-11-04T04:27:40.649Z,9.03
2018-11-04T04:30:10.563Z,9.03
2018-11-04T04:32:40.043Z,9.01
2018-11-04T04:35:10.455Z,8.95
2018-11-04T04:37:40.294Z,8.93
2018-11-04T04:40:10.097Z,8.96
2018-11-04T04:42:38.807Z,9.06
2018-11-04T04:45:08.444Z,9.08
2018-11-04T04:47:36.988Z,9.19
2018-11-04T04:50:05.848Z,9.13
2018-11-04T04:52:34.415Z,9.12
2018-11-04T04:55:03.099Z,9.17
2018-11-04T04:57:31.698Z,9.07
2018-11-04T05:00:00.211Z,9.01
2018-11-04T05:02:28.737Z,9.03
2018-11-04T05:04:57.286Z,9.00
2018-11-04T05:07:25.900Z,8.96
2018-11-04T05:09:54.416Z,8.92
2018-11-04T05:12:22.939Z,8.93
2018-11-04T05:14:51.480Z,9.01
2018-11-04T05:17:20.026Z,9.09
2018-11-04T05:19:48.617Z,9.08
2018-11-04T05:22:17.369Z,9.17
2018-11-04T05:24:46.657Z,9.18
2018-11-04T05:27:16.495Z,9.23
2018-11-04T05:29:45.642Z,9.25
2018-11-04T05:32:14.815Z,9.22
2018-11-04T05:34:43.391Z,9.23
2018-11-04T05:37:11.951Z,9.28
2018-11-04T05:39:40.480Z,9.32
2018-11-04T05:42:09.024Z,9.35
2018-11-04T05:44:37.827Z,9.36
2018-11-04T05:47:07.153Z,9.33
2018-11-04T05:49:35.751Z,9.37
2018-11-04T05:52:04.798Z,9.39
2018-11-04T05:54:33.438Z,9.45
2018-11-04T05:57:01.957Z,9.43
2018-11-04T05:59:30.493Z,9.45
2018-11-04T06:01:59.062Z,9.39
2018-11-04T06:04:27.892Z,9.37
2018-11-04T06:06:56.455Z,9.45
2018-11-04T06:09:25.036Z,9.54
2018-11-04T06:11:53.545Z,9.49
2018-11-04T06:14:22.076Z,9.48
2018-11-04T06:16:50.634Z,9.50
2018-11-04T06:19:19.198Z,9.46
2018-11-04T06:21:47.758Z,9.44
2018-11-04T06:24:17.688Z,9.39
2018-11-04T06:26:47.290Z,9.39
2018-11-04T06:29:16.092Z,9.52
2018-11-04T06:31:45.706Z,9.60
2018-11-04T06:34:14.664Z,9.66
2018-11-04T06:36:43.438Z,9.63
2018-11-04T06:39:12.038Z,9.67
2018-11-04T06:41:40.618Z,9.70
2018-11-04T06:44:09.193Z,9.63
2018-11-04T06:46:37.772Z,9.71
2018-11-04T06:49:06.325Z,9.70
2018-11-04T06:51:34.915Z,9.80
2018-11-04T06:54:03.821Z,9.82
2018-11-04T06:56:32.402Z,9.84
2018-11-04T06:59:01.056Z,9.70
2018-11-04T07:01:29.585Z,9.69
2018-11-04T07:04:09.629Z,9.78
2018-11-04T07:06:39.089Z,9.85
2018-11-04T07:09:09.281Z,9.87
2018-11-04T07:11:38.730Z,9.92
2018-11-04T07:14:07.358Z,9.85
2018-11-04T07:16:35.904Z,9.78
2018-11-04T07:19:04.709Z,9.85
2018-11-04T07:21:33.738Z,9.94
2018-11-04T07:24:02.660Z,10.02
2018-11-04T07:26:31.226Z,10.05
2018-11-04T07:28:59.783Z,10.07
2018-11-04T07:31:29.352Z,9.87
2018-11-04T07:33:58.710Z,9.91
2018-11-04T07:36:27.260Z,10.01
2018-11-04T07:38:55.814Z,9.89
2018-11-04T07:41:24.369Z,9.83
2018-11-04T07:43:52.921Z,9.99
2018-11-04T07:46:22.479Z,10.06
2018-11-04T07:48:51.924Z,10.12
2018-11-04T07:51:21.372Z,10.07
2018-11-04T07:53:50.794Z,10.07
2018-11-04T07:56:20.258Z,10.21
2018-11-04T07:58:49.693Z,10.12
2018-11-04T08:01:18.266Z,10.10
2018-11-04T08:03:47.718Z,10.14
2018-11-04T08:06:16.535Z,10.02
2018-11-04T08:08:45.670Z,10.16
2018-11-04T08:11:15.651Z,10.05
2018-11-04T08:13:45.576Z,10.09
2018-11-04T08:16:15.854Z,10.20
2018-11-04T08:18:46.405Z,10.18
2018-11-04T08:21:16.994Z,10.15
2018-11-04T08:23:46.435Z,10.31
2018-11-04T08:26:15.712Z,10.28
2018-11-04T08:28:45.838Z,10.28
2018-11-04T08:31:16.141Z,10.32
2018-11-04T08:33:46.139Z,10.40
2018-11-04T08:36:15.516Z,10.40
2018-11-04T08:38:45.970Z,10.39
2018-11-04T08:41:16.238Z,10.41
2018-11-04T08:43:46.029Z,10.51
2018-11-04T08:46:15.419Z,10.59
2018-11-04T08:48:44.394Z,10.72
2018-11-04T08:51:15.229Z,10.64
2018-11-04T08:53:44.156Z,10.63
2018-11-04T08:56:13.201Z,10.72
2018-11-04T08:58:42.578Z,10.49
2018-11-04T09:01:12.080Z,10.56
2018-11-04T09:03:41.764Z,10.64
2018-11-04T09:06:11.371Z,10.56
2018-11-04T09:08:40.809Z,10.50
2018-11-04T09:11:10.252Z,10.67
2018-11-04T09:13:39.880Z,10.59
2018-11-04T09:16:08.454Z,10.59
2018-11-04T09:18:55.359Z,10.62
2018-11-04T09:21:24.913Z,10.50
2018-11-04T09:26:56.276Z,10.48
2018-11-04T09:29:25.714Z,10.66
2018-11-04T09:32:29.983Z,10.68
2018-11-04T09:34:59.123Z,10.55
2018-11-04T09:37:28.992Z,10.54
2018-11-04T09:39:57.541Z,10.63
2018-11-04T09:42:26.150Z,10.69
2018-11-04T09:44:54.851Z,10.63
2018-11-04T09:47:23.414Z,10.62
2018-11-04T09:49:52.192Z,10.61
2018-11-04T09:52:21.728Z,10.63
2018-11-04T09:54:51.253Z,10.63
2018-11-04T09:57:19.808Z,10.73
2018-11-04T09:59:49.391Z,10.73
2018-11-04T10:02:17.984Z,10.85
2018-11-04T10:04:46.696Z,10.82
2018-11-04T10:07:17.386Z,10.66
2018-11-04T10:09:46.853Z,10.76
2018-11-04T10:12:16.194Z,10.75
2018-11-04T10:14:46.833Z,10.80
2018-11-04T10:17:17.668Z,10.84
2018-11-04T10:19:47.453Z,10.78
2018-11-04T10:22:17.268Z,10.82
2018-11-04T10:24:46.388Z,10.93
2018-11-04T10:27:16.016Z,10.91
2018-11-04T10:29:45.568Z,10.83
2018-11-04T10:32:14.679Z,10.93
2018-11-04T10:34:44.729Z,10.90
2018-11-04T10:37:13.526Z,10.77
2018-11-04T10:39:42.069Z,10.95
2018-11-04T10:42:11.724Z,10.93
2018-11-04T10:44:40.516Z,10.82
2018-11-04T10:47:10.815Z,10.90
2018-11-04T10:49:40.195Z,11.02
2018-11-04T10:52:09.871Z,10.94
2018-11-04T10:54:39.140Z,10.98
2018-11-04T10:57:09.082Z,10.97
2018-11-04T10:59:37.896Z,11.08
2018-11-04T11:02:06.503Z,11.04
2018-11-04T11:04:36.371Z,11.18
2018-11-04T11:07:07.542Z,11.11
2018-11-04T11:09:39.567Z,11.19
2018-11-04T11:12:08.328Z,11.18
2018-11-04T11:14:37.114Z,11.29
2018-11-04T11:17:06.713Z,11.20
2018-11-04T11:19:35.416Z,11.28
2018-11-04T11:22:04.009Z,11.25
2018-11-04T11:24:33.322Z,11.18
2018-11-04T11:27:01.999Z,11.33
2018-11-04T11:29:30.657Z,11.33
2018-11-04T11:31:59.475Z,11.49
2018-11-04T11:34:28.038Z,11.38
2018-11-04T11:36:56.836Z,11.29
2018-11-04T11:39:26.304Z,11.54
2018-11-04T11:41:55.065Z,11.47
2018-11-04T11:44:23.938Z,11.62
2018-11-04T11:46:52.726Z,11.46
2018-11-04T11:49:21.667Z,11.36
2018-11-04T11:51:50.266Z,11.36
2018-11-04T11:54:19.081Z,11.26
2018-11-04T11:56:47.801Z,11.14
2018-11-04T11:59:16.535Z,11.20
2018-11-04T12:01:46.281Z,11.32
2018-11-04T12:04:16.054Z,11.35
2018-11-04T12:06:45.546Z,11.18
2018-11-04T12:09:15.887Z,11.34
2018-11-04T12:11:45.277Z,11.33
2018-11-04T12:14:15.128Z,11.23
2018-11-04T12:16:45.086Z,11.37
2018-11-04T12:19:15.277Z,11.47
2018-11-04T12:21:44.697Z,11.48
2018-11-04T12:24:14.546Z,11.48
2018-11-04T12:26:45.201Z,11.39
2018-11-04T12:29:15.055Z,11.24
2018-11-04T12:31:44.545Z,11.26
2018-11-04T12:34:13.287Z,11.01
2018-11-04T12:36:42.031Z,11.09
2018-11-04T12:39:11.957Z,11.17
2018-11-04T12:41:40.640Z,11.10
2018-11-04T12:44:10.256Z,11.17
2018-11-04T12:46:39.878Z,11.01
2018-11-04T12:49:08.594Z,11.09
2018-11-04T12:51:37.322Z,11.10
2018-11-04T12:54:06.123Z,11.02
2018-11-04T12:56:34.800Z,11.18
2018-11-04T12:59:04.373Z,11.09
2018-11-04T13:01:33.098Z,11.08
2018-11-04T13:04:01.821Z,10.96
2018-11-04T13:06:30.455Z,11.01
2018-11-04T13:08:59.283Z,11.06
2018-11-04T13:11:28.914Z,11.13
2018-11-04T13:13:57.615Z,11.06
2018-11-04T13:16:27.277Z,11.03
2018-11-04T13:18:56.894Z,11.10
2018-11-04T13:21:26.721Z,11.07
2018-11-04T13:23:55.568Z,11.15
2018-11-04T13:26:25.120Z,11.20
2018-11-04T13:28:53.974Z,11.15
2018-11-04T13:31:22.532Z,11.16
2018-11-04T13:33:52.132Z,11.11
2018-11-04T13:36:20.701Z,11.02
2018-11-04T13:38:49.464Z,10.99
2018-11-04T13:41:18.136Z,10.91
2018-11-04T13:43:46.836Z,10.96
2018-11-04T13:46:17.445Z,11.08
2018-11-04T13:48:46.922Z,10.98
2018-11-04T13:51:16.101Z,11.03
2018-11-04T13:53:45.522Z,11.01
2018-11-04T13:56:15.799Z,10.92
2018-11-04T13:58:45.360Z,10.91
2018-11-04T14:01:15.031Z,10.80
2018-11-04T14:03:44.624Z,10.90
2018-11-04T14:06:13.463Z,10.75
2018-11-04T14:08:43.696Z,10.77
2018-11-04T14:11:12.653Z,10.88
2018-11-04T14:13:42.389Z,11.04
2018-11-04T14:16:11.326Z,11.09
2018-11-04T14:18:41.163Z,10.97
2018-11-04T14:21:10.420Z,11.02
2018-11-04T14:23:39.030Z,11.04
2018-11-04T14:26:08.124Z,11.03
2018-11-04T14:28:38.064Z,11.00
2018-11-04T14:31:08.040Z,11.10
2018-11-04T14:33:37.745Z,11.08
2018-11-04T14:36:07.611Z,11.10
2018-11-04T14:38:36.335Z,11.10
2018-11-04T14:41:05.489Z,11.09
2018-11-04T14:43:34.152Z,10.98
2018-11-04T14:46:02.717Z,10.86
2018-11-04T14:48:31.419Z,10.88
2018-11-04T14:51:00.122Z,10.96
2018-11-04T14:53:28.735Z,10.91
2018-11-04T14:55:58.322Z,10.96
2018-11-04T14:58:27.008Z,10.89
2018-11-04T15:00:56.591Z,10.90
2018-11-04T15:03:26.176Z,11.03
2018-11-04T15:05:54.913Z,11.04
2018-11-04T15:08:23.841Z,10.96
2018-11-04T15:10:52.466Z,10.99
2018-11-04T15:13:21.006Z,10.89
2018-11-04T15:15:49.607Z,10.91
2018-11-04T15:18:18.233Z,10.85
2018-11-04T15:20:47.098Z,10.87
2018-11-04T15:23:16.649Z,10.95
2018-11-04T15:25:46.214Z,10.90
2018-11-04T15:28:15.963Z,11.01
2018-11-04T15:30:46.058Z,11.04
2018-11-04T15:33:15.557Z,10.96
2018-11-04T15:35:44.794Z,10.97
2018-11-04T15:38:14.641Z,11.08
2018-11-04T15:40:43.321Z,11.05
2018-11-04T15:43:11.975Z,11.10
2018-11-04T15:45:40.700Z,10.98
2018-11-04T15:48:09.512Z,10.99
2018-11-04T15:50:38.251Z,11.09
2018-11-04T15:53:07.080Z,11.11
2018-11-04T15:55:35.777Z,11.03
2018-11-04T15:58:04.612Z,11.05
2018-11-04T16:00:33.238Z,11.03
2018-11-04T16:03:01.784Z,11.10
2018-11-04T16:05:31.244Z,11.12
2018-11-04T16:07:59.995Z,11.14
2018-11-04T16:10:29.637Z,11.09
2018-11-04T16:12:59.482Z,11.13
2018-11-04T16:15:28.152Z,11.17
2018-11-04T16:17:57.862Z,11.07
2018-11-04T16:20:26.574Z,11.03
2018-11-04T16:22:56.133Z,11.10
2018-11-04T16:25:24.865Z,11.07
2018-11-04T16:27:53.576Z,11.05
2018-11-04T16:30:22.332Z,11.01
2018-11-04T16:32:51.761Z,11.04
2018-11-04T16:35:21.368Z,10.92
2018-11-04T16:37:50.069Z,10.92
2018-11-04T16:40:19.734Z,11.02
2018-11-04T16:42:48.294Z,10.97
2018-11-04T16:45:17.014Z,10.93
2018-11-04T16:47:46.899Z,11.09
2018-11-04T16:50:17.633Z,10.95
2018-11-04T16:52:46.912Z,10.93
2018-11-04T16:55:15.638Z,11.02
2018-11-04T16:57:45.103Z,11.03
2018-11-04T17:00:14.166Z,11.01
2018-11-04T17:02:42.765Z,11.01
2018-11-04T17:05:13.545Z,10.95
2018-11-04T17:07:44.542Z,10.95
2018-11-04T17:10:14.675Z,10.90
2018-11-04T17:12:43.353Z,10.89
2018-11-04T17:15:14.602Z,10.90
2018-11-04T17:17:44.533Z,10.97
2018-11-04T17:20:15.075Z,11.08
2018-11-04T17:22:45.814Z,10.97
2018-11-04T17:25:15.169Z,11.01
2018-11-04T17:27:45.045Z,11.00
2018-11-04T17:30:18.095Z,10.92
2018-11-04T17:32:48.037Z,11.04
2018-11-04T17:35:18.394Z,10.99
2018-11-04T17:37:47.516Z,11.09
2018-11-04T17:40:17.163Z,11.05
2018-11-04T17:42:46.494Z,11.01
2018-11-04T17:45:17.188Z,11.07
2018-11-04T17:47:47.221Z,11.08
2018-11-04T17:50:20.340Z,11.17
2018-11-04T17:52:48.879Z,11.08
2018-11-04T17:55:17.494Z,11.01
2018-11-04T17:57:46.711Z,10.99
2018-11-04T18:00:16.885Z,11.01
2018-11-04T18:02:46.374Z,11.07
2018-11-04T18:05:16.373Z,11.07
2018-11-04T18:07:45.772Z,11.03
2018-11-04T18:10:16.075Z,11.12
2018-11-04T18:12:45.595Z,11.12
2018-11-04T18:15:15.302Z,11.14
2018-11-04T18:17:44.987Z,11.21
2018-11-04T18:20:14.270Z,11.18
2018-11-04T18:22:42.853Z,11.24
2018-11-04T18:25:12.295Z,11.19
2018-11-04T18:27:40.837Z,11.13
2018-11-04T18:30:11.359Z,11.20
2018-11-04T18:32:40.066Z,11.08
2018-11-04T18:35:08.871Z,11.06
2018-11-04T18:37:37.726Z,11.06
2018-11-04T18:40:08.533Z,11.05
2018-11-04T18:42:38.023Z,11.12
2018-11-04T18:45:08.485Z,11.13
2018-11-04T18:47:58.892Z,11.03
2018-11-04T18:50:29.403Z,11.07
2018-11-04T18:52:58.277Z,11.09
2018-11-04T18:55:26.836Z,11.06
2018-11-04T18:57:55.553Z,11.04
2018-11-04T19:00:24.183Z,10.99
2018-11-04T19:02:52.930Z,10.97
2018-11-04T19:05:21.844Z,11.00
2018-11-04T19:07:51.570Z,10.92
2018-11-04T19:10:20.606Z,10.97
2018-11-04T19:12:49.190Z,11.02
2018-11-04T19:15:17.768Z,11.01
2018-11-04T19:17:47.505Z,10.99
2018-11-04T19:20:17.759Z,11.02
2018-11-04T19:22:47.668Z,10.98
2018-11-04T19:25:17.409Z,10.99
2018-11-04T19:27:47.095Z,10.95
2018-11-04T19:30:17.506Z,11.03
2018-11-04T19:32:47.308Z,11.03
2018-11-04T19:35:17.326Z,11.00
2018-11-04T19:37:46.918Z,11.08
2018-11-04T19:40:16.748Z,10.97
2018-11-04T19:42:46.381Z,11.01
2018-11-04T19:45:15.642Z,10.97
2018-11-04T19:47:44.791Z,10.96
2018-11-04T19:50:15.559Z,10.92
2018-11-04T19:52:44.342Z,10.99
2018-11-04T19:55:13.397Z,11.03
2018-11-04T19:57:43.581Z,11.06
2018-11-04T20:00:13.202Z,11.05
2018-11-04T20:02:42.067Z,10.96
2018-11-04T20:05:11.738Z,10.85
2018-11-04T20:07:40.494Z,10.87
2018-11-04T20:10:15.241Z,10.83
2018-11-04T20:12:49.470Z,10.88
2018-11-04T20:15:18.095Z,10.91
2018-11-04T20:17:47.751Z,10.93
2018-11-04T20:20:19.635Z,10.91
2018-11-04T20:22:49.385Z,10.95
2018-11-04T20:25:23.315Z,10.96
2018-11-04T20:27:51.908Z,11.02
2018-11-04T20:30:20.501Z,10.94
2018-11-04T20:32:54.384Z,10.84
2018-11-04T20:35:22.971Z,10.84
2018-11-04T20:37:51.658Z,10.90
2018-11-04T20:40:26.311Z,10.96
2018-11-04T20:42:55.794Z,10.95
2018-11-04T20:45:24.386Z,11.03
2018-11-04T20:47:58.261Z,10.99
2018-11-04T20:50:32.238Z,10.98
2018-11-04T20:53:01.056Z,10.96
2018-11-04T20:55:35.071Z,10.90
2018-11-04T20:58:03.681Z,10.91
2018-11-04T21:00:32.299Z,11.03
2018-11-04T21:03:00.934Z,10.97
2018-11-04T21:05:29.496Z,10.96
2018-11-04T21:07:58.977Z,11.02
2018-11-04T21:10:28.779Z,10.95
2018-11-04T21:12:58.207Z,10.90
2018-11-04T21:15:26.762Z,11.00
2018-11-04T21:17:56.148Z,10.96
2018-11-04T21:20:24.690Z,10.95
2018-11-04T21:22:53.350Z,10.93
2018-11-04T21:25:23.391Z,10.88
2018-11-04T21:27:51.938Z,10.81
2018-11-04T21:30:21.687Z,10.87
2018-11-04T21:32:50.249Z,10.92
2018-11-04T21:35:18.796Z,10.93
2018-11-04T21:37:47.282Z,10.88
2018-11-04T21:40:16.713Z,10.88
2018-11-04T21:42:46.481Z,10.97
2018-11-04T21:45:15.662Z,10.93
2018-11-04T21:47:45.765Z,10.91
2018-11-04T21:50:14.542Z,10.97
2018-11-04T21:52:44.751Z,10.90
2018-11-04T21:55:14.521Z,10.87
2018-11-04T21:57:44.551Z,10.88
2018-11-04T22:00:15.449Z,10.88
2018-11-04T22:02:44.992Z,10.91
2018-11-04T22:05:14.409Z,10.90
2018-11-04T22:07:44.805Z,10.97
2018-11-04T22:10:15.790Z,10.95
2018-11-04T22:12:45.380Z,10.98
2018-11-04T22:15:14.675Z,10.88
2018-11-04T22:17:44.610Z,10.89
2018-11-04T22:20:14.937Z,10.92
2018-11-04T22:22:44.673Z,10.90
2018-11-04T22:25:13.284Z,10.86
2018-11-04T22:27:43.140Z,10.91
2018-11-04T22:30:12.646Z,10.97
2018-11-04T22:32:42.090Z,10.98
2018-11-04T22:35:12.332Z,10.90
2018-11-04T22:37:40.948Z,10.97
2018-11-04T22:40:11.898Z,10.91
2018-11-04T22:42:41.140Z,10.89
2018-11-04T22:45:11.400Z,10.79
2018-11-04T22:47:41.968Z,10.86
2018-11-04T22:50:13.331Z,10.88
2018-11-04T22:52:42.696Z,10.92
2018-11-04T22:55:11.965Z,11.01
2018-11-04T22:57:40.498Z,11.06
2018-11-04T23:00:15.927Z,11.05
2018-11-04T23:02:47.651Z,10.99
2018-11-04T23:05:21.777Z,10.90
2018-11-04T23:07:50.520Z,10.92
2018-11-04T23:10:19.114Z,10.98
2018-11-04T23:12:47.752Z,10.85
2018-11-04T23:15:16.915Z,10.92
2018-11-04T23:17:46.299Z,10.83
2018-11-04T23:20:15.166Z,10.90
2018-11-04T23:22:44.570Z,10.95
2018-11-04T23:25:14.489Z,10.92
2018-11-04T23:27:44.508Z,11.00
2018-11-04T23:30:16.591Z,11.00
2018-11-04T23:32:45.878Z,10.97
2018-11-04T23:35:14.546Z,11.03
2018-11-04T23:37:44.402Z,11.00
2018-11-04T23:40:13.294Z,11.00
2018-11-04T23:42:41.871Z,10.92
2018-11-04T23:45:12.769Z,10.95
2018-11-04T23:47:41.229Z,10.86
2018-11-04T23:50:13.451Z,10.87
2018-11-04T23:52:42.084Z,10.89
2018-11-04T23:55:11.454Z,10.93
2018-11-04T23:57:40.908Z,10.87
